createdAt,value
2022-12-03T00:05:56.823Z,4.9
2022-12-03T00:11:32.976Z,4.9
2022-12-03T00:17:08.147Z,4.9
2022-12-03T00:22:42.948Z,5
2022-12-03T00:28:17.602Z,5
2022-12-03T00:33:54.198Z,5
2022-12-03T00:39:29.937Z,4.9
2022-12-03T00:45:04.905Z,4.9
2022-12-03T00:51:01.005Z,4.8
2022-12-03T00:56:36.409Z,4.7
2022-12-03T01:02:13.139Z,4.7
2022-12-03T01:07:49.813Z,4.6
2022-12-03T01:13:25.761Z,4.6
2022-12-03T01:19:21.912Z,4.6
2022-12-03T01:25:23.532Z,4.7
2022-12-03T01:31:06.398Z,4.8
2022-12-03T01:36:55.077Z,4.8
2022-12-03T01:42:31.473Z,4.8
2022-12-03T01:48:28.376Z,4.9
2022-12-03T01:54:01.230Z,5
2022-12-03T01:59:36.568Z,4.9
2022-12-03T02:05:12.629Z,4.7
2022-12-03T02:11:01.161Z,4.8
2022-12-03T02:16:37.985Z,4.8
2022-12-03T02:22:14.212Z,4.8
2022-12-03T02:28:11.181Z,4.8
2022-12-03T02:33:46.413Z,4.8
2022-12-03T02:39:33.489Z,4.8
2022-12-03T02:45:12.412Z,4.8
2022-12-03T02:50:47.540Z,4.8
2022-12-03T02:56:22.833Z,4.9
2022-12-03T03:02:02.177Z,4.9
2022-12-03T03:07:38.947Z,4.8
2022-12-03T03:13:15.365Z,4.8
2022-12-03T03:18:50.365Z,4.9
2022-12-03T03:24:26.886Z,4.9
2022-12-03T03:30:02.235Z,4.9
2022-12-03T03:35:37.024Z,4.8
2022-12-03T03:41:14.124Z,4.8
2022-12-03T03:47:20.155Z,4.8
2022-12-03T03:52:53.203Z,4.8
2022-12-03T03:58:32.362Z,4.8
2022-12-03T04:04:15.807Z,4.9
2022-12-03T04:10:09.455Z,4.8
2022-12-03T04:15:47.236Z,4.8
2022-12-03T04:21:23.949Z,4.8
2022-12-03T04:27:01.824Z,4.8
2022-12-03T04:32:37.107Z,4.9
2022-12-03T04:38:12.082Z,4.8
2022-12-03T04:43:51.394Z,4.8
2022-12-03T04:49:36.013Z,4.9
2022-12-03T04:55:10.921Z,4.8
2022-12-03T05:00:48.543Z,4.8
2022-12-03T05:06:24.368Z,4.8
2022-12-03T05:11:59.708Z,4.9
2022-12-03T05:17:34.982Z,4.8
2022-12-03T05:23:24.515Z,4.7
2022-12-03T05:29:08.499Z,4.8
2022-12-03T05:34:43.910Z,4.8
2022-12-03T05:40:31.948Z,4.8
2022-12-03T05:46:28.722Z,4.9
2022-12-03T05:52:03.784Z,4.8
2022-12-03T05:57:50.853Z,4.8
2022-12-03T06:03:26.205Z,4.8
2022-12-03T06:09:04.324Z,4.8
2022-12-03T06:14:46.881Z,4.8
2022-12-03T06:20:22.599Z,4.8
2022-12-03T06:25:57.434Z,4.9
2022-12-03T06:31:33.628Z,5
2022-12-03T06:37:58.500Z,4.9
2022-12-03T06:44:18.487Z,5
2022-12-03T06:49:56.479Z,5
2022-12-03T06:55:51.770Z,5
2022-12-03T07:01:27.094Z,5.1
2022-12-03T07:07:12.290Z,5.1
2022-12-03T07:12:56.301Z,5.1
2022-12-03T07:18:51.505Z,5.1
2022-12-03T07:24:55.343Z,5.1
2022-12-03T07:30:31.586Z,5.1
2022-12-03T07:36:07.625Z,5
2022-12-03T07:42:03.683Z,5.1
2022-12-03T07:48:06.833Z,5.1
2022-12-03T07:53:39.324Z,5.2
2022-12-03T07:59:18.315Z,5.2
2022-12-03T08:05:01.244Z,5.4
2022-12-03T08:11:05.152Z,5.4
2022-12-03T08:16:46.830Z,5.5
2022-12-03T08:22:27.348Z,5.4
2022-12-03T08:28:06.195Z,5.3
2022-12-03T08:33:53.389Z,5.4
2022-12-03T08:39:32.205Z,5.4
2022-12-03T08:45:11.610Z,5.4
2022-12-03T08:50:50.975Z,5.5
2022-12-03T08:56:26.028Z,5.6
2022-12-03T09:02:05.824Z,5.6
2022-12-03T09:08:11.577Z,5.6
2022-12-03T09:14:16.832Z,5.6
2022-12-03T09:19:54.879Z,5.7
2022-12-03T09:25:33.120Z,5.6
2022-12-03T09:31:11.322Z,5.8
2022-12-03T09:37:07.832Z,5.6
2022-12-03T09:42:54.463Z,5.7
2022-12-03T09:48:52.105Z,5.7
2022-12-03T09:54:25.137Z,5.8
2022-12-03T10:00:02.534Z,5.9
2022-12-03T10:05:48.146Z,5.8
2022-12-03T10:11:50.687Z,6
2022-12-03T10:17:32.082Z,5.9
2022-12-03T10:23:13.458Z,6.1
2022-12-03T10:29:00.853Z,6
2022-12-03T10:35:11.703Z,6
2022-12-03T10:40:46.746Z,6.6
2022-12-03T10:46:35.419Z,7.2
2022-12-03T10:52:24.117Z,7.2
2022-12-03T10:58:03.578Z,7.3
2022-12-03T11:03:44.763Z,8.1
2022-12-03T11:09:22.828Z,8.5
2022-12-03T11:14:57.958Z,8.4
2022-12-03T11:20:34.141Z,7.9
2022-12-03T11:26:13.024Z,7.8
2022-12-03T11:31:55.040Z,7.5
2022-12-03T11:37:30.580Z,7.5
2022-12-03T11:43:07.063Z,7.6
2022-12-03T11:48:42.618Z,7.4
2022-12-03T11:54:20.324Z,7.3
2022-12-03T11:59:55.614Z,7.1
2022-12-03T12:05:31.744Z,7.2
2022-12-03T12:11:07.092Z,7
2022-12-03T12:16:49.830Z,7
2022-12-03T12:22:26.405Z,7
2022-12-03T12:28:01.396Z,7
2022-12-03T12:33:36.678Z,7
2022-12-03T12:39:21.882Z,7.2
2022-12-03T12:44:57.246Z,7
2022-12-03T12:50:33.317Z,7
2022-12-03T12:56:18.113Z,6.7
2022-12-03T13:02:10.052Z,6.7
2022-12-03T13:07:59.497Z,6.8
2022-12-03T13:13:45.281Z,6.7
2022-12-03T13:19:20.132Z,6.7
2022-12-03T13:32:25.287Z,6.8
2022-12-03T13:38:00.070Z,6.9
2022-12-03T13:43:45.239Z,6.9
2022-12-03T13:49:41.968Z,6.9
2022-12-03T13:55:16.149Z,6.7
2022-12-03T14:00:54.879Z,6.4
2022-12-03T14:06:31.010Z,6.8
2022-12-03T14:12:06.706Z,6.8
2022-12-03T14:17:41.745Z,6.7
2022-12-03T14:23:23.101Z,6.6
2022-12-03T14:29:12.463Z,6.8
2022-12-03T14:34:50.294Z,7.1
2022-12-03T14:40:25.273Z,7.2
2022-12-03T14:46:12.959Z,7
2022-12-03T14:51:55.076Z,6.6
2022-12-03T14:57:43.854Z,6.3
2022-12-03T15:03:18.922Z,6.2
2022-12-03T15:08:58.609Z,6.2
2022-12-03T15:14:34.002Z,6.2
2022-12-03T15:20:42.882Z,6.2
2022-12-03T15:26:18.166Z,6.2
2022-12-03T15:31:53.130Z,6
2022-12-03T15:37:36.865Z,6
2022-12-03T15:43:20.986Z,5.8
2022-12-03T15:49:27.466Z,5.6
2022-12-03T15:55:00.140Z,5.5
2022-12-03T16:00:35.368Z,5.4
2022-12-03T16:06:13.685Z,5.4
2022-12-03T16:12:14.521Z,5.3
2022-12-03T16:18:34.523Z,5.2
2022-12-03T16:24:13.444Z,5.2
2022-12-03T16:29:52.906Z,5.1
2022-12-03T16:35:39.969Z,5.2
2022-12-03T16:41:14.859Z,5.1
2022-12-03T16:46:52.488Z,5.1
2022-12-03T16:52:28.619Z,5.2
2022-12-03T16:58:28.179Z,5.1
2022-12-03T17:04:23.682Z,5.1
2022-12-03T17:09:58.708Z,5.1
2022-12-03T17:15:47.858Z,5
2022-12-03T17:22:07.069Z,5.1
2022-12-03T17:27:45.288Z,5
2022-12-03T17:33:28.295Z,5
2022-12-03T17:39:11.206Z,4.9
2022-12-03T17:44:47.652Z,5
2022-12-03T17:50:22.788Z,4.9
2022-12-03T17:56:06.144Z,4.9
2022-12-03T18:01:42.946Z,4.8
2022-12-03T18:07:19.548Z,4.9
2022-12-03T18:13:01.602Z,4.8
2022-12-03T18:18:40.328Z,4.8
2022-12-03T18:24:15.568Z,4.8
2022-12-03T18:29:50.527Z,4.9
2022-12-03T18:35:56.568Z,4.8
2022-12-03T18:41:50.224Z,4.8
2022-12-03T18:47:32.681Z,4.7
2022-12-03T18:53:09.673Z,4.8
2022-12-03T18:58:50.643Z,4.8
2022-12-03T19:04:51.747Z,4.8
2022-12-03T19:10:30.369Z,4.7
2022-12-03T19:17:38.736Z,4.6
2022-12-03T19:23:13.961Z,4.6
2022-12-03T19:28:51.367Z,4.5
2022-12-03T19:34:33.384Z,4.6
2022-12-03T19:40:16.846Z,4.6
2022-12-03T19:45:52.405Z,4.6
2022-12-03T19:51:53.892Z,4.5
2022-12-03T19:57:37.359Z,4.6
2022-12-03T20:03:33.295Z,4.5
2022-12-03T20:09:31.137Z,4.5
2022-12-03T20:15:18.676Z,4.5
2022-12-03T20:20:54.738Z,4.6
2022-12-03T20:26:52.478Z,4.5
2022-12-03T20:32:29.369Z,4.5
2022-12-03T20:38:22.784Z,4.6
2022-12-03T20:44:05.689Z,4.6
2022-12-03T20:49:55.908Z,4.5
2022-12-03T20:55:32.886Z,4.5
2022-12-03T21:01:38.311Z,4.6
2022-12-03T21:07:38.980Z,4.5
2022-12-03T21:14:17.325Z,4.5
2022-12-03T21:19:55.420Z,4.5
2022-12-03T21:26:04.057Z,4.4
2022-12-03T21:31:38.873Z,4.4
2022-12-03T21:37:15.926Z,4.4
2022-12-03T21:42:55.780Z,4.4
2022-12-03T21:48:38.284Z,4.3
2022-12-03T21:54:15.021Z,4.3
2022-12-03T21:59:50.743Z,4.2
2022-12-03T22:05:29.719Z,4.2
2022-12-03T22:11:10.438Z,4.2
2022-12-03T22:17:01.561Z,4.2
2022-12-03T22:22:51.756Z,4.3
2022-12-03T22:28:50.363Z,4.2
2022-12-03T22:34:25.509Z,4.4
2022-12-03T22:40:21.843Z,4.3
2022-12-03T22:45:57.066Z,4.3
2022-12-03T22:51:33.523Z,4.2
2022-12-03T22:57:09.048Z,4
2022-12-03T23:03:11.812Z,3.8
2022-12-03T23:08:49.363Z,3.7
2022-12-03T23:14:33.149Z,3.6
2022-12-03T23:20:10.944Z,3.8
2022-12-03T23:25:51.047Z,3.9
2022-12-03T23:31:26.403Z,4
2022-12-03T23:37:03.611Z,4
2022-12-03T23:42:47.245Z,4
2022-12-03T23:48:47.087Z,4
2022-12-03T23:54:20.887Z,4.1
